Time;durP1;ratioP1;P1;durP2;ratioP2;P2;SDS_P1;SDS_P2;PMS_P1;PMS_P2;Temp;Humidity;BMP_temperature;BMP_pressure;BME280_temperature;BME280_humidity;BME280_pressure;Samples;Min_cycle;Max_cycle;Signal;HPM_P1;HPM_P2
2021/05/10 00:02:55;;;;;;;5.28;2.25;;;;;18.10;99401.00;;;;10440562;28;20213;-73
2021/05/10 00:07:57;;;;;;;5.20;1.98;;;;;18.00;99380.00;;;;10448978;28;20213;-74
2021/05/10 00:12:59;;;;;;;2.90;1.40;;;;;18.00;99379.00;;;;10480673;28;20189;-73
2021/05/10 00:18:03;;;;;;;2.17;1.85;;;;;18.00;99360.00;;;;10497078;28;20189;-74
2021/05/10 00:23:05;;;;;;;3.53;1.60;;;;;18.00;99359.00;;;;10496413;28;21016;-73
2021/05/10 00:28:06;;;;;;;3.60;1.80;;;;;18.00;99346.00;;;;10480206;28;20201;-74
2021/05/10 00:33:08;;;;;;;2.03;1.63;;;;;18.00;99347.00;;;;10514464;28;20185;-74
2021/05/10 00:38:09;;;;;;;2.90;1.80;;;;;17.80;99328.00;;;;10480622;28;20193;-74
2021/05/10 00:43:11;;;;;;;4.05;1.80;;;;;17.70;99309.00;;;;10447058;28;20209;-74
2021/05/10 00:48:12;;;;;;;2.60;1.65;;;;;17.80;99300.00;;;;10497901;28;20193;-73
2021/05/10 00:53:13;;;;;;;3.78;2.13;;;;;17.80;99304.00;;;;10497183;28;20193;-74
2021/05/10 00:58:15;;;;;;;2.93;1.53;;;;;17.90;99300.00;;;;10520131;28;20203;-74
2021/05/10 01:03:16;;;;;;;3.33;1.50;;;;;17.90;99298.00;;;;10526791;28;20220;-74
2021/05/10 01:08:17;;;;;;;2.40;1.75;;;;;17.90;99288.00;;;;10530470;28;20224;-74
2021/05/10 01:13:19;;;;;;;3.13;1.88;;;;;17.90;99283.00;;;;10530521;28;20254;-74
2021/05/10 01:18:21;;;;;;;5.82;2.00;;;;;17.80;99287.00;;;;10495914;28;20192;-74
2021/05/10 01:23:23;;;;;;;3.03;1.70;;;;;17.70;99285.00;;;;10530287;28;20563;-74
2021/05/10 01:28:25;;;;;;;3.30;1.95;;;;;17.50;99268.00;;;;10453965;28;20663;-74
2021/05/10 01:33:27;;;;;;;3.03;2.03;;;;;17.40;99273.00;;;;10488091;28;20181;-73
2021/05/10 01:38:28;;;;;;;3.47;1.73;;;;;17.20;99275.00;;;;10487698;28;20189;-74
2021/05/10 01:43:29;;;;;;;2.45;1.85;;;;;17.00;99268.00;;;;10454437;28;20672;-74
2021/05/10 01:48:31;;;;;;;3.13;1.97;;;;;16.80;99267.00;;;;10486455;28;20290;-73
2021/05/10 01:53:33;;;;;;;3.40;2.30;;;;;16.70;99280.00;;;;10453115;28;20645;-74
2021/05/10 01:58:34;;;;;;;2.43;1.90;;;;;16.90;99266.00;;;;10519257;28;20656;-73
2021/05/10 02:03:35;;;;;;;3.57;1.87;;;;;17.20;99271.00;;;;10486146;28;20542;-74
2021/05/10 02:08:36;;;;;;;4.50;2.00;;;;;17.50;99269.00;;;;10486402;28;20258;-74
2021/05/10 02:13:38;;;;;;;2.60;1.90;;;;;17.70;99267.00;;;;10485213;28;20618;-74
2021/05/10 02:18:39;;;;;;;5.30;1.80;;;;;17.90;99281.00;;;;10452638;28;20611;-74
2021/05/10 02:23:40;;;;;;;2.80;1.65;;;;;18.00;99274.00;;;;10485703;28;20205;-74
2021/05/10 02:28:42;;;;;;;4.55;1.83;;;;;18.20;99268.00;;;;10468985;28;20243;-74
2021/05/10 02:33:43;;;;;;;3.35;1.85;;;;;18.40;99270.00;;;;10484971;28;20637;-74
2021/05/10 02:38:45;;;;;;;2.65;1.60;;;;;18.40;99285.00;;;;10451542;28;20196;-74
2021/05/10 02:43:46;;;;;;;1.77;1.42;;;;;18.50;99264.00;;;;10468443;28;20266;-74
2021/05/10 02:48:48;;;;;;;3.42;1.77;;;;;18.70;99305.00;;;;10467877;28;20205;-74
2021/05/10 02:53:49;;;;;;;4.22;1.70;;;;;18.80;99290.00;;;;10484697;28;20193;-74
2021/05/10 02:58:51;;;;;;;2.70;1.63;;;;;18.80;99315.00;;;;10502264;28;20270;-74
2021/05/10 03:03:52;;;;;;;3.15;1.67;;;;;18.70;99316.00;;;;10483544;28;20676;-74
2021/05/10 03:08:53;;;;;;;4.07;2.00;;;;;18.70;99347.00;;;;10500033;28;20213;-74
2021/05/10 03:13:55;;;;;;;3.97;2.35;;;;;18.60;99354.00;;;;10501872;28;20197;-74
2021/05/10 03:18:56;;;;;;;8.55;1.92;;;;;18.50;99375.00;;;;10482981;28;20227;-74
2021/05/10 03:23:58;;;;;;;5.28;2.05;;;;;18.40;99408.00;;;;10499146;28;20213;-74
2021/05/10 03:29:01;;;;;;;5.05;2.00;;;;;18.10;99436.00;;;;10470994;28;20204;-74
2021/05/10 03:34:03;;;;;;;2.25;1.35;;;;;17.30;99458.00;;;;10465737;28;20232;-74
2021/05/10 03:39:05;;;;;;;2.50;1.50;;;;;16.80;99464.00;;;;10482704;28;20197;-74
2021/05/10 03:44:07;;;;;;;3.70;2.17;;;;;16.50;99487.00;;;;10449042;28;20680;-74
2021/05/10 03:49:08;;;;;;;2.07;1.50;;;;;16.20;99479.00;;;;10482078;28;20197;-74
2021/05/10 03:54:09;;;;;;;3.70;2.27;;;;;15.90;99418.00;;;;10498386;28;20193;-75
2021/05/10 03:59:11;;;;;;;3.17;2.20;;;;;15.70;99447.00;;;;10506210;28;20193;-74
2021/05/10 04:09:32;;;;;;;5.77;2.80;;;;;15.40;99490.00;;;;10505811;28;20220;-75
2021/05/10 04:14:34;;;;;;;5.77;3.00;;;;;15.30;99436.00;;;;10506108;28;20269;-74
2021/05/10 04:19:35;;;;;;;4.93;2.80;;;;;15.30;99497.00;;;;10522339;28;20840;-74
2021/05/10 04:24:36;;;;;;;2.83;2.30;;;;;15.30;99501.00;;;;10522724;28;20209;-74
2021/05/10 04:29:38;;;;;;;4.17;1.20;;;;;15.20;99473.00;;;;10522472;28;20220;-74
2021/05/10 04:34:39;;;;;;;1.47;1.30;;;;;15.20;99523.00;;;;10522483;28;20214;-74
2021/05/10 04:39:43;;;;;;;2.83;1.00;;;;;15.10;99568.00;;;;10538176;28;20570;-74
2021/05/10 04:44:44;;;;;;;2.87;1.27;;;;;15.10;99599.00;;;;10521614;28;20208;-74
2021/05/10 04:49:46;;;;;;;2.17;1.10;;;;;15.10;99599.00;;;;10501112;28;20263;-74
2021/05/10 04:54:47;;;;;;;2.00;1.20;;;;;15.20;99611.00;;;;10463215;28;20197;-74
2021/05/10 04:59:52;;;;;;;0.97;0.90;;;;;15.20;99640.00;;;;10513332;28;20204;-75
2021/05/10 05:04:53;;;;;;;2.40;1.20;;;;;15.40;99643.00;;;;10471597;28;20276;-74
2021/05/10 05:09:54;;;;;;;1.70;0.93;;;;;15.60;99621.00;;;;10422067;28;20553;-74
2021/05/10 05:14:55;;;;;;;1.30;1.00;;;;;15.80;99632.00;;;;10454489;28;20652;-74
2021/05/10 05:19:57;;;;;;;2.00;1.10;;;;;15.90;99635.00;;;;10437908;28;20676;-74
2021/05/10 05:24:58;;;;;;;1.57;1.17;;;;;15.70;99648.00;;;;10451018;28;20206;-74
2021/05/10 05:29:59;;;;;;;1.30;1.20;;;;;15.70;99676.00;;;;10496390;28;20589;-74
2021/05/10 05:35:03;;;;;;;2.03;1.10;;;;;15.90;99673.00;;;;10495529;28;20202;-74
2021/05/10 05:40:05;;;;;;;2.20;1.30;;;;;15.90;99665.00;;;;10495456;28;20193;-74
2021/05/10 05:45:07;;;;;;;2.00;1.10;;;;;16.00;99679.00;;;;10512808;28;20209;-74
2021/05/10 05:50:09;;;;;;;1.37;1.20;;;;;15.80;99668.00;;;;10484641;28;20201;-74
2021/05/10 05:55:11;;;;;;;1.17;1.07;;;;;15.70;99685.00;;;;10469528;28;20189;-74
2021/05/10 06:00:12;;;;;;;1.60;1.20;;;;;15.60;99691.00;;;;10503106;28;20205;-74
2021/05/10 06:05:14;;;;;;;2.87;1.47;;;;;15.60;99695.00;;;;10486890;28;20225;-74
2021/05/10 06:10:25;;;;;;;4.13;1.73;;;;;15.50;99699.00;;;;10469565;28;20588;-74
2021/05/10 06:15:26;;;;;;;2.20;1.80;;;;;15.60;99697.00;;;;10502233;28;20201;-75
2021/05/10 06:20:27;;;;;;;2.00;1.50;;;;;15.80;99745.00;;;;10508717;28;20196;-74
2021/05/10 06:25:29;;;;;;;3.03;2.10;;;;;15.60;99739.00;;;;10463732;28;20213;-74
2021/05/10 06:30:31;;;;;;;2.23;1.80;;;;;15.40;99761.00;;;;10469939;28;20193;-74
2021/05/10 06:35:32;;;;;;;2.13;1.93;;;;;15.30;99765.00;;;;10477639;28;20197;-74
2021/05/10 06:40:34;;;;;;;1.93;1.40;;;;;15.30;99772.00;;;;10520261;28;20195;-74
2021/05/10 06:45:35;;;;;;;5.93;1.40;;;;;15.70;99771.00;;;;10483196;28;20240;-75
2021/05/10 06:50:37;;;;;;;1.27;1.17;;;;;16.20;99783.00;;;;10439121;28;20198;-74
2021/05/10 06:55:38;;;;;;;2.43;1.50;;;;;16.60;99790.00;;;;10452289;28;21061;-74
2021/05/10 07:00:39;;;;;;;1.70;1.60;;;;;17.20;99791.00;;;;10466360;28;20197;-75
2021/05/10 07:05:43;;;;;;;2.63;1.83;;;;;17.50;99820.00;;;;10475927;28;20217;-75
2021/05/10 07:10:52;;;;;;;1.87;1.77;;;;;17.70;99803.00;;;;10462082;28;20248;-75
2021/05/10 07:15:53;;;;;;;2.07;1.70;;;;;18.00;99805.00;;;;10497184;28;20190;-74
2021/05/10 07:20:55;;;;;;;2.70;2.10;;;;;18.10;99826.00;;;;10519188;28;20205;-74
2021/05/10 07:25:56;;;;;;;4.03;1.85;;;;;18.00;99841.00;;;;10497095;28;20264;-75
2021/05/10 07:30:57;;;;;;;3.15;1.67;;;;;17.20;99837.00;;;;10499710;28;20259;-74
2021/05/10 07:35:59;;;;;;;4.03;2.10;;;;;17.20;99843.00;;;;10500665;28;20182;-74
2021/05/10 07:41:01;;;;;;;5.83;2.40;;;;;17.30;99847.00;;;;10482276;28;20605;-74
2021/05/10 07:46:02;;;;;;;4.73;2.30;;;;;17.20;99869.00;;;;10465028;28;20680;-74
2021/05/10 07:51:04;;;;;;;3.20;2.30;;;;;16.90;99857.00;;;;10464883;28;20251;-75
2021/05/10 07:56:05;;;;;;;7.67;2.77;;;;;17.00;99873.00;;;;10520618;28;20219;-74
2021/05/10 08:01:07;;;;;;;2.80;2.37;;;;;16.90;99876.00;;;;10519557;28;20235;-74
2021/05/10 08:06:08;;;;;;;4.00;2.20;;;;;17.00;99887.00;;;;10461896;28;20236;-75
2021/05/10 08:11:10;;;;;;;5.63;2.20;;;;;17.10;99902.00;;;;10431060;28;20194;-75
2021/05/10 08:16:11;;;;;;;3.17;2.30;;;;;16.90;99893.00;;;;10470083;28;20185;-75
2021/05/10 08:21:12;;;;;;;3.70;2.50;;;;;16.90;99896.00;;;;10463493;28;20260;-75
2021/05/10 08:26:14;;;;;;;7.83;2.90;;;;;17.20;99902.00;;;;10446358;28;20239;-75
2021/05/10 08:31:15;;;;;;;4.67;2.60;;;;;17.60;99905.00;;;;10465622;28;20718;-75
2021/05/10 08:36:18;;;;;;;4.83;2.80;;;;;18.20;99922.00;;;;10482712;28;20190;-75
2021/05/10 08:41:19;;;;;;;4.43;2.30;;;;;18.20;99923.00;;;;10479501;28;20204;-75
2021/05/10 08:46:24;;;;;;;4.00;2.60;;;;;17.90;99920.00;;;;10451859;28;20217;-75
2021/05/10 08:51:27;;;;;;;4.30;2.72;;;;;18.00;99935.00;;;;10440389;28;20255;-75
2021/05/10 08:56:31;;;;;;;3.60;2.28;;;;;18.10;99933.00;;;;10477082;28;20602;-75
2021/05/10 09:01:58;;;;;;;2.65;2.10;;;;;18.50;99939.00;;;;10462939;28;20231;-75
2021/05/10 09:07:17;;;;;;;4.53;2.25;;;;;18.90;99939.00;;;;10445434;28;20316;-75
2021/05/10 09:12:23;;;;;;;4.00;2.40;;;;;19.10;99941.00;;;;10437383;28;20252;-75
2021/05/10 09:17:25;;;;;;;4.55;2.60;;;;;18.90;99943.00;;;;10438132;28;20538;-75
2021/05/10 09:22:46;;;;;;;6.28;2.38;;;;;19.40;99961.00;;;;10440034;28;20216;-75
2021/05/10 09:27:48;;;;;;;6.32;2.20;;;;;19.80;99972.00;;;;10495981;28;20224;-75
2021/05/10 09:32:54;;;;;;;5.15;2.42;;;;;20.70;99967.00;;;;10429412;28;20195;-75
2021/05/10 09:38:03;;;;;;;6.10;2.15;;;;;20.80;99970.00;;;;10429029;28;20193;-75
2021/05/10 09:43:05;;;;;;;4.38;2.22;;;;;21.20;99971.00;;;;10485839;28;20271;-75
2021/05/10 09:48:12;;;;;;;4.35;1.65;;;;;22.00;99947.00;;;;10484287;28;20297;-75
2021/05/10 09:53:19;;;;;;;3.85;1.60;;;;;22.70;99945.00;;;;10485927;28;20189;-75
2021/05/10 09:58:35;;;;;;;7.93;1.60;;;;;23.20;99941.00;;;;10444934;28;20210;-75
2021/05/10 10:03:39;;;;;;;5.45;1.92;;;;;25.00;99939.00;;;;10445451;28;20210;-75
2021/05/10 10:08:44;;;;;;;6.35;1.83;;;;;24.90;99952.00;;;;10504769;28;20568;-75
2021/05/10 10:13:48;;;;;;;3.53;1.77;;;;;24.40;99942.00;;;;10463420;28;20194;-75
2021/05/10 10:18:51;;;;;;;4.15;1.45;;;;;23.90;99954.00;;;;10480539;28;20209;-75
2021/05/10 10:23:54;;;;;;;5.13;1.95;;;;;22.30;99960.00;;;;10445847;28;20209;-75
2021/05/10 10:29:16;;;;;;;4.63;1.92;;;;;21.40;99958.00;;;;10447385;28;20194;-75
2021/05/10 10:34:35;;;;;;;4.47;2.20;;;;;21.30;99968.00;;;;10489173;28;20193;-75
2021/05/10 10:39:49;;;;;;;5.45;2.53;;;;;22.00;99972.00;;;;10486168;28;20695;-75
2021/05/10 10:45:01;;;;;;;4.95;2.67;;;;;23.80;99968.00;;;;10433243;28;20211;-76
2021/05/10 10:50:04;;;;;;;5.22;2.60;;;;;24.10;99977.00;;;;10512997;28;20197;-76
2021/05/10 10:55:17;;;;;;;2.53;1.50;;;;;25.60;99991.00;;;;10494879;28;20236;-76
2021/05/10 11:00:19;;;;;;;4.05;2.05;;;;;26.00;99987.00;;;;10467282;28;20192;-76
2021/05/10 11:05:23;;;;;;;3.13;2.00;;;;;26.10;99985.00;;;;10483242;28;20271;-76
2021/05/10 11:10:49;;;;;;;4.70;2.17;;;;;25.50;99998.00;;;;10450839;28;20205;-76
2021/05/10 11:15:51;;;;;;;7.30;1.80;;;;;24.70;100014.00;;;;10480652;28;20197;-76
2021/05/10 11:20:53;;;;;;;2.95;1.77;;;;;24.80;100015.00;;;;10459695;28;20213;-76
2021/05/10 11:26:08;;;;;;;3.47;1.20;;;;;26.00;100019.00;;;;10474061;28;20213;-76
2021/05/10 11:31:13;;;;;;;2.63;1.20;;;;;27.30;100006.00;;;;10524654;28;20524;-76
2021/05/10 11:36:21;;;;;;;5.38;1.23;;;;;27.40;100018.00;;;;10482956;28;20649;-76
2021/05/10 11:41:42;;;;;;;2.63;1.10;;;;;26.70;100022.00;;;;10481685;28;20194;-76
2021/05/10 11:46:48;;;;;;;5.05;1.30;;;;;27.20;100031.00;;;;10478636;28;20217;-76
2021/05/10 11:51:49;;;;;;;5.43;1.27;;;;;26.20;100026.00;;;;10514569;28;20641;-76
2021/05/10 11:56:53;;;;;;;4.45;1.38;;;;;27.00;100038.00;;;;10473864;28;20308;-76
2021/05/10 12:01:55;;;;;;;3.92;1.50;;;;;26.20;100051.00;;;;10451290;28;20183;-75
2021/05/10 12:06:58;;;;;;;8.02;1.40;;;;;26.20;100050.00;;;;10447472;28;20316;-76
2021/05/10 12:12:00;;;;;;;4.10;1.40;;;;;26.90;100054.00;;;;10462794;28;20201;-75
2021/05/10 12:17:19;;;;;;;4.70;1.58;;;;;27.00;100057.00;;;;10464314;28;20193;-76
2021/05/10 12:22:28;;;;;;;7.28;1.75;;;;;26.80;100048.00;;;;10461775;28;20648;-74
2021/05/10 12:27:31;;;;;;;7.82;1.55;;;;;26.80;100038.00;;;;10488935;28;20258;-75
2021/05/10 12:32:33;;;;;;;7.30;1.67;;;;;27.10;100040.00;;;;10478947;28;20572;-76
2021/05/10 12:37:40;;;;;;;5.22;1.35;;;;;28.30;100047.00;;;;10421950;28;20292;-74
2021/05/10 12:42:42;;;;;;;7.25;1.70;;;;;27.70;100065.00;;;;10452381;28;20190;-74
2021/05/10 12:47:47;;;;;;;5.93;1.88;;;;;28.00;100041.00;;;;10454352;28;20210;-74
2021/05/10 12:52:51;;;;;;;4.40;1.10;;;;;28.40;100041.00;;;;10456809;28;20202;-74
2021/05/10 12:57:52;;;;;;;5.93;1.52;;;;;28.70;100052.00;;;;10454683;28;20198;-74
2021/05/10 13:02:54;;;;;;;4.35;1.20;;;;;26.40;100061.00;;;;10449637;28;20248;-74
2021/05/10 13:07:56;;;;;;;3.60;1.38;;;;;26.40;100050.00;;;;10453681;28;20228;-73
2021/05/10 13:12:58;;;;;;;4.32;1.38;;;;;27.30;100050.00;;;;10455935;28;20190;-74
2021/05/10 13:27:04;;;;;;;4.13;1.20;;;;;26.70;100048.00;;;;10454473;28;20209;-74
2021/05/10 13:34:08;;;;;;;2.33;1.10;;;;;25.90;100047.00;;;;10420689;28;20267;-74
2021/05/10 13:39:14;;;;;;;4.63;1.10;;;;;27.10;100043.00;;;;10466218;28;20243;-73
2021/05/10 13:44:15;;;;;;;5.20;1.23;;;;;29.90;100034.00;;;;10478227;28;20729;-74
2021/05/10 13:49:18;;;;;;;4.20;1.40;;;;;30.90;100051.00;;;;10478151;28;20204;-73
2021/05/10 13:54:22;;;;;;;3.45;1.20;;;;;30.20;100053.00;;;;10477349;28;20194;-73
2021/05/10 13:59:25;;;;;;;2.38;1.15;;;;;31.40;100047.00;;;;10476223;28;20212;-74
2021/05/10 14:04:26;;;;;;;4.07;1.63;;;;;28.90;100060.00;;;;10479430;28;20194;-73
2021/05/10 14:09:27;;;;;;;5.10;1.63;;;;;32.70;100041.00;;;;10513768;28;20197;-73
2021/05/10 14:14:29;;;;;;;4.35;1.20;;;;;34.50;100053.00;;;;10501906;28;20388;-73
2021/05/10 14:19:32;;;;;;;3.70;1.13;;;;;29.30;100059.00;;;;10451658;28;20258;-73
2021/05/10 14:24:33;;;;;;;4.53;1.23;;;;;28.40;100051.00;;;;10476784;28;20236;-73
2021/05/10 14:29:37;;;;;;;2.92;1.30;;;;;31.70;100054.00;;;;10483931;28;20272;-74
2021/05/10 14:34:39;;;;;;;10.52;1.88;;;;;34.40;100058.00;;;;10438848;28;20210;-74
2021/05/10 14:39:41;;;;;;;6.50;1.50;;;;;35.00;100076.00;;;;10494910;28;20807;-74
2021/05/10 14:44:42;;;;;;;4.18;1.25;;;;;28.00;100064.00;;;;10466652;28;20259;-74
2021/05/10 14:49:43;;;;;;;6.05;1.60;;;;;27.40;100076.00;;;;10500865;28;20670;-74
2021/05/10 14:54:44;;;;;;;6.45;1.80;;;;;32.60;100048.00;;;;10494145;28;20603;-74
2021/05/10 14:59:46;;;;;;;5.05;1.42;;;;;27.70;100075.00;;;;10493879;28;20598;-74
2021/05/10 15:04:47;;;;;;;4.68;1.52;;;;;25.30;100073.00;;;;10485277;28;20218;-74
2021/05/10 15:09:49;;;;;;;2.95;1.10;;;;;24.90;100068.00;;;;10499836;28;20807;-74
2021/05/10 15:14:51;;;;;;;2.92;1.08;;;;;24.00;100056.00;;;;10497205;28;20197;-73
2021/05/10 15:19:53;;;;;;;3.20;1.25;;;;;23.90;100053.00;;;;10479303;28;20217;-73
2021/05/10 15:24:54;;;;;;;6.60;1.58;;;;;29.80;100041.00;;;;10480769;28;20205;-73
2021/05/10 15:29:55;;;;;;;4.18;1.10;;;;;31.10;100053.00;;;;10465990;28;20201;-73
2021/05/10 15:34:56;;;;;;;4.38;0.90;;;;;33.60;100058.00;;;;10474111;28;20292;-75
2021/05/10 15:39:58;;;;;;;4.28;1.58;;;;;28.40;100064.00;;;;10474612;28;20199;-74
2021/05/10 15:45:03;;;;;;;4.97;1.25;;;;;32.50;100046.00;;;;10454455;28;20217;-74
2021/05/10 15:50:07;;;;;;;5.70;1.35;;;;;35.40;100037.00;;;;10511906;28;20201;-75
2021/05/10 15:55:09;;;;;;;2.70;1.20;;;;;35.70;100070.00;;;;10493824;28;20189;-75
2021/05/10 16:00:12;;;;;;;2.15;1.33;;;;;32.90;100066.00;;;;10460605;28;20198;-74
2021/05/10 16:05:13;;;;;;;3.30;1.17;;;;;31.20;100034.00;;;;10460281;28;20229;-75
2021/05/10 16:10:15;;;;;;;3.72;1.20;;;;;28.60;100061.00;;;;10495592;28;20216;-75
2021/05/10 16:15:24;;;;;;;4.35;1.30;;;;;27.40;100060.00;;;;10493436;28;20194;-75
2021/05/10 16:20:25;;;;;;;4.63;1.33;;;;;26.20;100068.00;;;;10493679;28;20912;-75
2021/05/10 16:25:26;;;;;;;3.38;1.52;;;;;25.30;100058.00;;;;10444111;28;20695;-74
2021/05/10 16:30:32;;;;;;;3.25;0.88;;;;;24.40;100063.00;;;;10484157;28;20715;-74
2021/05/10 16:35:33;;;;;;;3.72;1.10;;;;;23.90;100076.00;;;;10460176;28;20272;-74
2021/05/10 16:40:35;;;;;;;4.28;1.00;;;;;23.50;100082.00;;;;10494015;28;20219;-76
2021/05/10 16:45:37;;;;;;;3.67;1.15;;;;;23.20;100092.00;;;;10488619;28;20302;-74
2021/05/10 16:50:39;;;;;;;3.20;1.17;;;;;23.00;100105.00;;;;10472730;28;20201;-74
2021/05/10 16:55:40;;;;;;;2.65;1.10;;;;;22.90;100104.00;;;;10451817;28;20198;-73
2021/05/10 17:00:41;;;;;;;3.08;0.77;;;;;22.50;100106.00;;;;10460049;28;20202;-74
2021/05/10 17:05:43;;;;;;;3.60;1.00;;;;;22.40;100109.00;;;;10477175;28;20232;-73
2021/05/10 17:10:46;;;;;;;4.82;1.35;;;;;22.20;100105.00;;;;10478760;28;20217;-74
2021/05/10 17:15:47;;;;;;;3.33;1.20;;;;;22.10;100107.00;;;;10463055;28;20198;-73
2021/05/10 17:21:06;;;;;;;6.45;1.20;;;;;21.90;100105.00;;;;10460229;28;20276;-74
2021/05/10 17:26:08;;;;;;;2.15;1.02;;;;;21.80;100116.00;;;;10479136;28;20692;-73
2021/05/10 17:31:11;;;;;;;3.05;0.98;;;;;21.70;100103.00;;;;10496305;28;20189;-74
2021/05/10 17:36:12;;;;;;;3.70;1.40;;;;;21.40;100109.00;;;;10480138;28;20219;-74
2021/05/10 17:41:15;;;;;;;4.50;1.27;;;;;21.20;100111.00;;;;10463017;28;20197;-73
2021/05/10 17:46:17;;;;;;;5.18;1.15;;;;;21.20;100113.00;;;;10452876;28;20577;-73
2021/05/10 17:51:19;;;;;;;4.47;1.52;;;;;20.90;100107.00;;;;10520378;28;20193;-73
2021/05/10 17:56:21;;;;;;;5.80;1.38;;;;;20.60;100111.00;;;;10480619;28;20263;-73
2021/05/10 18:06:31;;;;;;;4.72;1.33;;;;;20.00;100106.00;;;;10435004;28;20317;-73
2021/05/10 18:11:32;;;;;;;5.57;1.20;;;;;19.80;100104.00;;;;10461574;28;20247;-74
2021/05/10 18:16:36;;;;;;;3.50;1.00;;;;;19.60;100107.00;;;;10462283;28;20726;-74
2021/05/10 18:21:38;;;;;;;1.60;0.80;;;;;19.40;100109.00;;;;10460675;28;20190;-73
2021/05/10 18:26:39;;;;;;;5.25;1.08;;;;;19.20;100103.00;;;;10503758;28;20241;-73
2021/05/10 18:31:43;;;;;;;2.55;0.90;;;;;19.00;100102.00;;;;10519304;28;20201;-73
2021/05/10 18:41:57;;;;;;;3.38;1.35;;;;;18.60;100102.00;;;;10503685;28;20553;-73
2021/05/10 18:47:08;;;;;;;6.10;1.27;;;;;18.40;100108.00;;;;10469397;28;20205;-73
2021/05/10 18:52:10;;;;;;;7.55;1.17;;;;;18.30;100112.00;;;;10503169;28;20549;-73
2021/05/10 18:57:12;;;;;;;4.10;1.50;;;;;18.10;100111.00;;;;10466667;28;20718;-73
2021/05/10 19:02:13;;;;;;;5.10;0.98;;;;;17.90;100117.00;;;;10484821;28;20223;-73
2021/05/10 19:07:15;;;;;;;2.97;1.00;;;;;17.70;100108.00;;;;10483800;28;20221;-73
2021/05/10 19:12:16;;;;;;;5.33;1.30;;;;;17.60;100107.00;;;;10450729;28;20193;-73
2021/05/10 19:17:18;;;;;;;6.43;1.30;;;;;17.50;100100.00;;;;10483241;28;20197;-74
2021/05/10 19:22:25;;;;;;;3.03;1.40;;;;;17.40;100107.00;;;;10468020;28;20193;-73
2021/05/10 19:27:27;;;;;;;4.27;1.27;;;;;17.30;100110.00;;;;10450514;28;20213;-73
2021/05/10 19:32:29;;;;;;;2.67;1.20;;;;;17.10;100124.00;;;;10465739;28;20194;-73
2021/05/10 19:37:30;;;;;;;2.97;1.10;;;;;17.00;100131.00;;;;10466567;28;20224;-73
2021/05/10 19:42:31;;;;;;;3.77;1.90;;;;;16.90;100137.00;;;;10449364;28;20591;-73
2021/05/10 20:08:03;;;;;;;5.17;1.50;;;;;16.50;100170.00;;;;10457314;28;20214;-73
2021/05/10 20:13:04;;;;;;;4.80;1.40;;;;;16.40;100172.00;;;;10458338;28;20190;-73
2021/05/10 20:18:05;;;;;;;4.87;1.70;;;;;16.30;100180.00;;;;10493586;28;20198;-73
2021/05/10 20:23:08;;;;;;;10.40;1.73;;;;;16.20;100168.00;;;;10481400;28;20272;-73
2021/05/10 20:28:09;;;;;;;3.10;1.17;;;;;16.20;100172.00;;;;10481416;28;20185;-73
2021/05/10 20:33:11;;;;;;;4.40;1.20;;;;;16.10;100170.00;;;;10514535;28;20235;-73
2021/05/10 20:38:14;;;;;;;2.30;1.17;;;;;16.00;100165.00;;;;10497673;28;20194;-73
2021/05/10 20:43:15;;;;;;;7.73;2.00;;;;;16.00;100169.00;;;;10496677;28;20645;-74
2021/05/10 20:48:17;;;;;;;4.43;1.60;;;;;16.00;100174.00;;;;10479828;28;20193;-74
2021/05/10 20:53:18;;;;;;;7.13;1.80;;;;;15.90;100187.00;;;;10479976;28;20189;-73
2021/05/10 20:58:19;;;;;;;8.17;1.30;;;;;15.80;100193.00;;;;10539290;28;20207;-74
2021/05/10 21:03:21;;;;;;;2.80;1.30;;;;;15.70;100190.00;;;;10505547;28;20258;-73
2021/05/10 21:08:23;;;;;;;5.00;1.37;;;;;15.70;100195.00;;;;10487929;28;20722;-74
2021/05/10 21:13:32;;;;;;;5.30;1.40;;;;;15.60;100196.00;;;;10505393;28;20181;-74
2021/05/10 21:18:36;;;;;;;4.27;1.43;;;;;15.50;100204.00;;;;10481762;28;20200;-74
2021/05/10 21:23:37;;;;;;;5.77;1.70;;;;;15.50;100207.00;;;;10504243;28;20229;-73
2021/05/10 21:28:39;;;;;;;6.73;1.70;;;;;15.40;100214.00;;;;10488419;28;20224;-74
2021/05/10 21:33:41;;;;;;;5.33;1.50;;;;;15.40;100209.00;;;;10504735;28;20193;-74
2021/05/10 21:39:05;;;;;;;5.20;1.77;;;;;15.30;100213.00;;;;10500731;28;20202;-74
2021/05/10 21:44:09;;;;;;;3.37;1.60;;;;;15.20;100211.00;;;;10486553;28;20672;-74
2021/05/10 21:49:10;;;;;;;7.43;1.77;;;;;15.20;100209.00;;;;10486648;28;20205;-74
2021/05/10 21:54:12;;;;;;;4.10;1.60;;;;;15.20;100209.00;;;;10470001;28;20196;-74
2021/05/10 21:59:14;;;;;;;4.20;1.70;;;;;15.20;100211.00;;;;10470727;28;20239;-74
2021/05/10 22:04:16;;;;;;;4.93;1.97;;;;;15.20;100206.00;;;;10453318;28;20209;-74
2021/05/10 22:09:17;;;;;;;6.17;2.07;;;;;15.10;100206.00;;;;10486567;28;20198;-74
2021/05/10 22:14:19;;;;;;;4.07;1.97;;;;;15.10;100214.00;;;;10469305;28;20284;-74
2021/05/10 22:19:20;;;;;;;6.63;2.20;;;;;15.00;100217.00;;;;10469072;28;20243;-74
2021/05/10 22:24:40;;;;;;;4.37;1.57;;;;;14.90;100220.00;;;;10493649;28;20220;-74
2021/05/10 22:29:41;;;;;;;3.87;2.00;;;;;14.90;100230.00;;;;10479252;28;20613;-74
2021/05/10 22:34:45;;;;;;;6.17;1.77;;;;;14.80;100237.00;;;;10485357;28;20193;-73
2021/05/10 22:39:54;;;;;;;6.53;1.87;;;;;14.80;100242.00;;;;10501425;28;20645;-74
2021/05/10 22:45:05;;;;;;;5.53;1.90;;;;;14.80;100244.00;;;;10467801;28;20210;-74
2021/05/10 23:16:43;;;;;;;4.30;1.57;;;;;14.50;100263.00;;;;10483423;28;20736;-74
2021/05/10 23:21:46;;;;;;;4.37;1.80;;;;;14.50;100264.00;;;;10483598;28;20601;-74
2021/05/10 23:26:47;;;;;;;6.10;1.83;;;;;14.50;100267.00;;;;10481329;28;20205;-74
2021/05/10 23:31:50;;;;;;;4.57;2.27;;;;;14.50;100268.00;;;;10498968;28;20194;-74
2021/05/10 23:36:51;;;;;;;3.47;2.17;;;;;14.40;100266.00;;;;10481877;28;20667;-74
2021/05/10 23:41:54;;;;;;;7.90;2.67;;;;;14.30;100260.00;;;;10481865;28;20280;-74
2021/05/10 23:46:55;;;;;;;8.70;3.37;;;;;14.30;100246.00;;;;10498734;28;20217;-74
2021/05/10 23:51:57;;;;;;;5.87;3.30;;;;;14.20;100246.00;;;;10481692;28;20564;-74
2021/05/10 23:56:58;;;;;;;5.73;3.07;;;;;14.10;100254.00;;;;10482265;28;20201;-74
